createdAt,value
2018-10-21T00:00:32.424Z,19.22
2018-10-21T00:01:32.635Z,19.22
2018-10-21T00:02:32.287Z,19.21
2018-10-21T00:03:32.323Z,19.21
2018-10-21T00:04:32.493Z,19.2
2018-10-21T00:05:32.320Z,19.21
2018-10-21T00:06:32.677Z,19.2
2018-10-21T00:07:32.696Z,19.21
2018-10-21T00:08:32.294Z,19.2
2018-10-21T00:09:32.367Z,19.19
2018-10-21T00:10:32.369Z,19.2
2018-10-21T00:11:32.712Z,19.21
2018-10-21T00:12:32.409Z,19.2
2018-10-21T00:13:32.651Z,19.2
2018-10-21T00:14:32.326Z,19.19
2018-10-21T00:15:32.416Z,19.19
2018-10-21T00:16:32.354Z,19.19
2018-10-21T00:17:32.546Z,19.19
2018-10-21T00:18:32.405Z,19.2
2018-10-21T00:19:32.217Z,19.19
2018-10-21T00:20:32.350Z,19.19
2018-10-21T00:21:32.206Z,19.19
2018-10-21T00:22:32.678Z,19.18
2018-10-21T00:23:32.444Z,19.18
2018-10-21T00:24:32.740Z,19.18
2018-10-21T00:25:32.284Z,19.17
2018-10-21T00:26:32.226Z,19.18
2018-10-21T00:27:32.589Z,19.18
2018-10-21T00:28:32.831Z,19.18
2018-10-21T00:29:32.221Z,19.18
2018-10-21T00:30:32.469Z,19.17
2018-10-21T00:31:32.845Z,19.19
2018-10-21T00:32:32.855Z,19.18
2018-10-21T00:33:32.322Z,19.17
2018-10-21T00:34:32.351Z,19.17
2018-10-21T00:35:32.607Z,19.18
2018-10-21T00:36:32.626Z,19.17
2018-10-21T00:37:32.435Z,19.16
2018-10-21T00:38:32.289Z,19.17
2018-10-21T00:39:32.322Z,19.17
2018-10-21T00:40:32.377Z,19.18
2018-10-21T00:41:32.212Z,19.17
2018-10-21T00:42:32.686Z,19.16
2018-10-21T00:43:32.274Z,19.17
2018-10-21T00:44:32.336Z,19.16
2018-10-21T00:45:32.987Z,19.16
2018-10-21T00:46:32.347Z,19.17
2018-10-21T00:47:32.317Z,19.17
2018-10-21T00:48:32.481Z,19.16
2018-10-21T00:49:32.960Z,19.16
2018-10-21T00:50:32.287Z,19.17
2018-10-21T00:51:32.543Z,19.16
2018-10-21T00:52:32.299Z,19.16
2018-10-21T00:53:32.236Z,19.16
2018-10-21T00:54:32.198Z,19.16
2018-10-21T00:55:32.344Z,19.16
2018-10-21T00:56:32.387Z,19.15
2018-10-21T00:57:32.260Z,19.15
2018-10-21T00:58:32.332Z,19.15
2018-10-21T00:59:32.229Z,19.15
2018-10-21T01:00:32.221Z,19.16
2018-10-21T01:01:32.162Z,19.16
2018-10-21T01:02:32.390Z,19.14
2018-10-21T01:03:32.261Z,19.14
2018-10-21T01:04:32.115Z,19.14
2018-10-21T01:05:32.202Z,19.14
2018-10-21T01:06:32.495Z,19.14
2018-10-21T01:07:32.366Z,19.13
2018-10-21T01:08:32.344Z,19.13
2018-10-21T01:09:32.674Z,19.13
2018-10-21T01:10:32.773Z,19.14
2018-10-21T01:11:32.244Z,19.13
2018-10-21T01:12:32.304Z,19.13
2018-10-21T01:13:32.451Z,19.12
2018-10-21T01:14:32.654Z,19.13
2018-10-21T01:15:32.733Z,19.12
2018-10-21T01:16:32.882Z,19.12
2018-10-21T01:17:32.300Z,19.13
2018-10-21T01:18:32.348Z,19.12
2018-10-21T01:19:32.210Z,19.12
2018-10-21T01:20:32.581Z,19.13
2018-10-21T01:21:32.385Z,19.12
2018-10-21T01:22:32.195Z,19.11
2018-10-21T01:23:32.607Z,19.12
2018-10-21T01:24:32.369Z,19.13
2018-10-21T01:25:32.519Z,19.11
2018-10-21T01:26:32.351Z,19.11
2018-10-21T01:27:32.558Z,19.12
2018-10-21T01:28:32.482Z,19.11
2018-10-21T01:29:32.310Z,19.11
2018-10-21T01:30:32.319Z,19.1
2018-10-21T01:31:32.444Z,19.11
2018-10-21T01:32:32.674Z,19.12
2018-10-21T01:33:32.754Z,19.11
2018-10-21T01:34:32.159Z,19.11
2018-10-21T01:35:32.223Z,19.12
2018-10-21T01:36:32.557Z,19.11
2018-10-21T01:37:32.338Z,19.12
2018-10-21T01:38:32.405Z,19.11
2018-10-21T01:39:32.348Z,19.11
2018-10-21T01:40:32.248Z,19.1
2018-10-21T01:41:32.397Z,19.11
2018-10-21T01:42:32.506Z,19.1
2018-10-21T01:43:32.458Z,19.1
2018-10-21T01:44:32.385Z,19.1
2018-10-21T01:45:32.366Z,19.1
2018-10-21T01:46:32.353Z,19.09
2018-10-21T01:47:32.309Z,19.1
2018-10-21T01:48:32.258Z,19.09
2018-10-21T01:49:32.319Z,19.1
2018-10-21T01:50:32.417Z,19.1
2018-10-21T01:51:32.193Z,19.09
2018-10-21T01:52:32.715Z,19.1
2018-10-21T01:53:32.708Z,19.09
2018-10-21T01:54:32.497Z,19.08
2018-10-21T01:55:32.359Z,19.09
2018-10-21T01:56:32.383Z,19.08
2018-10-21T01:57:32.214Z,19.09
2018-10-21T01:58:32.382Z,19.09
2018-10-21T01:59:32.407Z,19.09
2018-10-21T02:00:32.631Z,19.08
2018-10-21T02:01:32.154Z,19.08
2018-10-21T02:02:32.513Z,19.08
2018-10-21T02:03:32.809Z,19.08
2018-10-21T02:04:32.283Z,19.07
2018-10-21T02:05:32.401Z,19.08
2018-10-21T02:06:32.185Z,19.07
2018-10-21T02:07:32.650Z,19.06
2018-10-21T02:08:32.333Z,19.07
2018-10-21T02:09:32.213Z,19.07
2018-10-21T02:10:32.370Z,19.08
2018-10-21T02:11:32.308Z,19.07
2018-10-21T02:12:32.405Z,19.07
2018-10-21T02:13:32.307Z,19.07
2018-10-21T02:14:32.196Z,19.05
2018-10-21T02:15:32.168Z,19.06
2018-10-21T02:16:32.687Z,19.06
2018-10-21T02:17:32.687Z,19.06
2018-10-21T02:18:32.307Z,19.06
2018-10-21T02:19:32.340Z,19.07
2018-10-21T02:20:32.286Z,19.05
2018-10-21T02:21:32.359Z,19.05
2018-10-21T02:22:32.248Z,19.06
2018-10-21T02:23:32.353Z,19.06
2018-10-21T02:24:32.401Z,19.06
2018-10-21T02:25:32.268Z,19.06
2018-10-21T02:26:32.456Z,19.07
2018-10-21T02:27:32.836Z,19.05
2018-10-21T02:28:32.231Z,19.06
2018-10-21T02:29:32.149Z,19.07
2018-10-21T02:30:32.445Z,19.06
2018-10-21T02:31:32.686Z,19.05
2018-10-21T02:32:32.388Z,19.04
2018-10-21T02:33:32.629Z,19.06
2018-10-21T02:34:32.223Z,19.05
2018-10-21T02:35:32.240Z,19.05
2018-10-21T02:36:32.154Z,19.05
2018-10-21T02:37:32.147Z,19.04
2018-10-21T02:38:32.320Z,19.05
2018-10-21T02:39:32.367Z,19.04
2018-10-21T02:40:32.516Z,19.04
2018-10-21T02:41:32.263Z,19.04
2018-10-21T02:42:32.336Z,19.03
2018-10-21T02:43:32.685Z,19.03
2018-10-21T02:44:32.182Z,19.03
2018-10-21T02:45:32.284Z,19.04
2018-10-21T02:46:32.319Z,19.04
2018-10-21T02:47:32.155Z,19.04
2018-10-21T02:48:32.255Z,19.03
2018-10-21T02:49:32.612Z,19.03
2018-10-21T02:50:32.618Z,19.03
2018-10-21T02:51:32.865Z,19.02
2018-10-21T02:52:32.357Z,19.02
2018-10-21T02:53:32.723Z,19.03
2018-10-21T02:54:32.285Z,19.02
2018-10-21T02:55:32.230Z,19.03
2018-10-21T02:56:32.396Z,19.03
2018-10-21T02:57:32.750Z,19.02
2018-10-21T02:58:32.265Z,19.02
2018-10-21T02:59:32.289Z,19.02
2018-10-21T03:00:32.651Z,19.02
2018-10-21T03:01:32.387Z,19.03
2018-10-21T03:02:32.171Z,19.02
2018-10-21T03:03:32.339Z,19.02
2018-10-21T03:04:32.376Z,19.02
2018-10-21T03:05:32.273Z,19.02
2018-10-21T03:06:32.560Z,19.01
2018-10-21T03:07:32.217Z,19.01
2018-10-21T03:08:32.203Z,19.01
2018-10-21T03:09:32.248Z,19.01
2018-10-21T03:10:32.751Z,19.01
2018-10-21T03:11:32.205Z,19.01
2018-10-21T03:12:32.303Z,19.01
2018-10-21T03:13:32.355Z,19.02
2018-10-21T03:14:32.276Z,19.02
2018-10-21T03:15:32.193Z,19.01
2018-10-21T03:16:32.282Z,19.01
2018-10-21T03:17:32.540Z,19.01
2018-10-21T03:18:32.486Z,19
2018-10-21T03:19:32.519Z,18.99
2018-10-21T03:20:32.484Z,19
2018-10-21T03:21:32.371Z,19
2018-10-21T03:22:32.297Z,19.01
2018-10-21T03:23:32.588Z,19.01
2018-10-21T03:24:32.460Z,19.01
2018-10-21T03:25:32.216Z,19
2018-10-21T03:26:32.395Z,18.99
2018-10-21T03:27:32.161Z,19.01
2018-10-21T03:28:32.252Z,19
2018-10-21T03:29:32.486Z,18.99
2018-10-21T03:30:32.224Z,18.99
2018-10-21T03:31:32.551Z,18.99
2018-10-21T03:32:32.285Z,18.98
2018-10-21T03:33:32.755Z,18.99
2018-10-21T03:34:32.909Z,18.98
2018-10-21T03:35:32.668Z,18.98
2018-10-21T03:36:32.263Z,19
2018-10-21T03:37:32.649Z,18.99
2018-10-21T03:38:32.589Z,18.99
2018-10-21T03:39:32.361Z,18.99
2018-10-21T03:40:32.252Z,18.99
2018-10-21T03:41:32.188Z,18.99
2018-10-21T03:42:32.311Z,19
2018-10-21T03:43:32.165Z,18.99
2018-10-21T03:44:32.266Z,18.98
2018-10-21T03:45:32.273Z,18.98
2018-10-21T03:46:32.189Z,18.98
2018-10-21T03:47:32.160Z,18.98
2018-10-21T03:48:32.426Z,18.98
2018-10-21T03:49:32.172Z,18.98
2018-10-21T03:50:32.369Z,18.99
2018-10-21T03:51:32.218Z,18.98
2018-10-21T03:52:32.123Z,18.98
2018-10-21T03:53:32.331Z,18.97
2018-10-21T03:54:32.161Z,18.99
2018-10-21T03:55:32.096Z,19
2018-10-21T03:56:32.105Z,19
2018-10-21T03:57:32.284Z,19.01
2018-10-21T03:58:32.506Z,19.01
2018-10-21T03:59:32.325Z,19.01
2018-10-21T04:00:32.285Z,19.02
2018-10-21T04:01:32.232Z,19.03
2018-10-21T04:02:32.284Z,19.05
2018-10-21T04:03:32.690Z,19.04
2018-10-21T04:04:32.312Z,19.05
2018-10-21T04:05:32.163Z,19.06
2018-10-21T04:06:32.288Z,19.06
2018-10-21T04:07:32.174Z,19.08
2018-10-21T04:08:32.327Z,19.09
2018-10-21T04:09:32.218Z,19.1
2018-10-21T04:10:32.098Z,19.1
2018-10-21T04:11:32.227Z,19.13
2018-10-21T04:12:32.219Z,19.13
2018-10-21T04:13:32.443Z,19.16
2018-10-21T04:14:32.533Z,19.16
2018-10-21T04:15:32.361Z,19.17
2018-10-21T04:16:32.357Z,19.18
2018-10-21T04:17:32.263Z,19.19
2018-10-21T04:18:32.203Z,19.22
2018-10-21T04:19:32.280Z,19.24
2018-10-21T04:20:32.487Z,19.26
2018-10-21T04:21:32.389Z,19.28
2018-10-21T04:22:32.346Z,19.29
2018-10-21T04:23:32.204Z,19.31
2018-10-21T04:24:32.539Z,19.33
2018-10-21T04:25:32.262Z,19.34
2018-10-21T04:26:32.366Z,19.36
2018-10-21T04:27:32.307Z,19.38
2018-10-21T04:28:32.170Z,19.4
2018-10-21T04:29:32.418Z,19.41
2018-10-21T04:30:32.655Z,19.42
2018-10-21T04:31:32.362Z,19.43
2018-10-21T04:32:32.121Z,19.45
2018-10-21T04:33:32.334Z,19.47
2018-10-21T04:34:32.477Z,19.48
2018-10-21T04:35:32.169Z,19.5
2018-10-21T04:36:32.339Z,19.51
2018-10-21T04:37:32.198Z,19.52
2018-10-21T04:38:32.266Z,19.54
2018-10-21T04:39:32.115Z,19.55
2018-10-21T04:40:32.075Z,19.57
2018-10-21T04:41:32.217Z,19.58
2018-10-21T04:42:32.226Z,19.6
2018-10-21T04:43:32.716Z,19.61
2018-10-21T04:44:32.235Z,19.63
2018-10-21T04:45:32.248Z,19.64
2018-10-21T04:46:32.483Z,19.65
2018-10-21T04:47:32.373Z,19.66
2018-10-21T04:48:32.332Z,19.67
2018-10-21T04:49:32.648Z,19.69
2018-10-21T04:50:32.288Z,19.7
2018-10-21T04:51:32.323Z,19.72
2018-10-21T04:52:32.335Z,19.74
2018-10-21T04:53:32.318Z,19.74
2018-10-21T04:54:32.455Z,19.76
2018-10-21T04:55:32.397Z,19.78
2018-10-21T04:56:32.244Z,19.78
2018-10-21T04:57:32.270Z,19.8
2018-10-21T04:58:32.351Z,19.82
2018-10-21T04:59:32.172Z,19.83
2018-10-21T05:00:32.433Z,19.83
2018-10-21T05:01:32.159Z,19.84
2018-10-21T05:02:32.173Z,19.86
2018-10-21T05:03:32.308Z,19.86
2018-10-21T05:04:32.558Z,19.87
2018-10-21T05:05:32.373Z,19.88
2018-10-21T05:06:32.121Z,19.88
2018-10-21T05:07:32.190Z,19.89
2018-10-21T05:08:32.073Z,19.9
2018-10-21T05:09:32.179Z,19.9
2018-10-21T05:10:32.220Z,19.92
2018-10-21T05:11:32.518Z,19.92
2018-10-21T05:12:32.227Z,19.93
2018-10-21T05:13:32.088Z,19.93
2018-10-21T05:14:32.437Z,19.94
2018-10-21T05:15:32.294Z,19.96
2018-10-21T05:16:32.201Z,19.96
2018-10-21T05:17:32.079Z,19.96
2018-10-21T05:18:32.436Z,19.99
2018-10-21T05:19:32.274Z,19.99
2018-10-21T05:20:32.302Z,20.01
2018-10-21T05:21:32.547Z,20.02
2018-10-21T05:22:32.713Z,20.03
2018-10-21T05:23:32.084Z,20.04
2018-10-21T05:24:32.327Z,20.04
2018-10-21T05:25:32.720Z,20.05
2018-10-21T05:26:32.330Z,20.06
2018-10-21T05:27:32.250Z,20.08
2018-10-21T05:28:32.240Z,20.08
2018-10-21T05:29:32.516Z,20.09
2018-10-21T05:30:32.256Z,20.1
2018-10-21T05:31:32.319Z,20.1
2018-10-21T05:32:32.239Z,20.12
2018-10-21T05:33:32.219Z,20.13
2018-10-21T05:34:32.259Z,20.14
2018-10-21T05:35:32.244Z,20.14
2018-10-21T05:36:32.394Z,20.16
2018-10-21T05:37:32.106Z,20.16
2018-10-21T05:38:32.086Z,20.17
2018-10-21T05:39:32.163Z,20.17
2018-10-21T05:40:32.411Z,20.18
2018-10-21T05:41:32.105Z,20.19
2018-10-21T05:42:32.295Z,20.18
2018-10-21T05:43:32.223Z,20.2
2018-10-21T05:44:32.223Z,20.2
2018-10-21T05:45:32.173Z,20.2
2018-10-21T05:46:32.334Z,20.21
2018-10-21T05:47:32.258Z,20.21
2018-10-21T05:48:32.092Z,20.23
2018-10-21T05:49:32.259Z,20.22
2018-10-21T05:50:32.307Z,20.23
2018-10-21T05:51:32.117Z,20.23
2018-10-21T05:52:32.359Z,20.23
2018-10-21T05:53:32.471Z,20.24
2018-10-21T05:54:32.557Z,20.24
2018-10-21T05:55:32.443Z,20.24
2018-10-21T05:56:32.205Z,20.25
2018-10-21T05:57:32.188Z,20.25
2018-10-21T05:58:32.109Z,20.26
2018-10-21T05:59:32.269Z,20.27
2018-10-21T06:00:32.406Z,20.27
2018-10-21T06:01:32.249Z,20.27
2018-10-21T06:02:32.491Z,20.28
2018-10-21T06:03:32.226Z,20.29
2018-10-21T06:04:32.306Z,20.29
2018-10-21T06:05:32.387Z,20.3
2018-10-21T06:06:32.209Z,20.3
2018-10-21T06:07:32.175Z,20.32
2018-10-21T06:08:32.225Z,20.32
2018-10-21T06:09:32.341Z,20.32
2018-10-21T06:10:32.557Z,20.33
2018-10-21T06:11:32.091Z,20.34
2018-10-21T06:12:32.223Z,20.34
2018-10-21T06:13:32.247Z,20.34
2018-10-21T06:14:32.070Z,20.34
2018-10-21T06:15:32.017Z,20.35
2018-10-21T06:16:32.281Z,20.35
2018-10-21T06:17:32.460Z,20.35
2018-10-21T06:18:32.366Z,20.37
2018-10-21T06:19:32.236Z,20.36
2018-10-21T06:20:32.161Z,20.37
2018-10-21T06:21:32.075Z,20.36
2018-10-21T06:22:32.500Z,20.36
2018-10-21T06:23:32.343Z,20.37
2018-10-21T06:24:32.258Z,20.36
2018-10-21T06:25:32.215Z,20.36
2018-10-21T06:26:32.322Z,20.36
2018-10-21T06:27:32.302Z,20.37
2018-10-21T06:28:32.982Z,20.36
2018-10-21T06:29:32.259Z,20.36
2018-10-21T06:30:32.158Z,20.37
2018-10-21T06:31:32.336Z,20.36
2018-10-21T06:32:32.475Z,20.36
2018-10-21T06:33:32.338Z,20.35
2018-10-21T06:34:32.682Z,20.35
2018-10-21T06:35:32.810Z,20.36
2018-10-21T06:36:32.156Z,20.35
2018-10-21T06:37:32.260Z,20.35
2018-10-21T06:38:32.108Z,20.35
2018-10-21T06:39:32.153Z,20.35
2018-10-21T06:40:32.331Z,20.34
2018-10-21T06:41:32.770Z,20.34
2018-10-21T06:42:32.145Z,20.34
2018-10-21T06:43:32.165Z,20.34
2018-10-21T06:44:32.042Z,20.33
2018-10-21T06:45:32.198Z,20.32
2018-10-21T06:46:32.261Z,20.32
2018-10-21T06:47:32.273Z,20.33
2018-10-21T06:48:32.123Z,20.32
2018-10-21T06:49:32.266Z,20.31
2018-10-21T06:50:32.485Z,20.31
2018-10-21T06:51:32.643Z,20.31
2018-10-21T06:52:32.337Z,20.3
2018-10-21T06:53:32.241Z,20.3
2018-10-21T06:54:32.506Z,20.29
2018-10-21T06:55:32.318Z,20.29
2018-10-21T06:56:32.309Z,20.28
2018-10-21T06:57:32.295Z,20.28
2018-10-21T06:58:32.507Z,20.28
2018-10-21T06:59:32.388Z,20.27
2018-10-21T07:00:32.062Z,20.27
2018-10-21T07:01:32.305Z,20.26
2018-10-21T07:02:32.180Z,20.26
2018-10-21T07:03:32.071Z,20.25
2018-10-21T07:04:32.132Z,20.26
2018-10-21T07:05:32.171Z,20.25
2018-10-21T07:06:32.066Z,20.25
2018-10-21T07:07:32.179Z,20.24
2018-10-21T07:08:32.204Z,20.23
2018-10-21T07:09:32.239Z,20.22
2018-10-21T07:10:32.087Z,20.23
2018-10-21T07:11:32.017Z,20.22
2018-10-21T07:12:32.184Z,20.22
2018-10-21T07:13:32.122Z,20.2
2018-10-21T07:14:32.316Z,20.2
2018-10-21T07:15:32.234Z,20.2
2018-10-21T07:16:32.356Z,20.2
2018-10-21T07:17:32.280Z,20.19
2018-10-21T07:18:32.325Z,20.18
2018-10-21T07:19:32.328Z,20.18
2018-10-21T07:20:32.117Z,20.17
2018-10-21T07:21:32.277Z,20.17
2018-10-21T07:22:32.245Z,20.17
2018-10-21T07:23:32.091Z,20.17
2018-10-21T07:24:32.245Z,20.16
2018-10-21T07:25:32.352Z,20.16
2018-10-21T07:26:32.151Z,20.15
2018-10-21T07:27:32.095Z,20.14
2018-10-21T07:28:32.327Z,20.13
2018-10-21T07:29:32.377Z,20.14
2018-10-21T07:30:32.403Z,20.13
2018-10-21T07:31:32.262Z,20.13
2018-10-21T07:32:32.391Z,20.12
2018-10-21T07:33:32.462Z,20.11
2018-10-21T07:34:32.352Z,20.11
2018-10-21T07:35:32.159Z,20.1
2018-10-21T07:36:32.386Z,20.09
2018-10-21T07:37:32.085Z,20.09
2018-10-21T07:38:32.193Z,20.09
2018-10-21T07:39:32.272Z,20.09
2018-10-21T07:40:32.359Z,20.08
2018-10-21T07:41:32.082Z,20.07
2018-10-21T07:42:32.195Z,20.07
2018-10-21T07:43:32.262Z,20.06
2018-10-21T07:44:32.118Z,20.07
2018-10-21T07:45:32.150Z,20
2018-10-21T07:46:32.803Z,19.83
2018-10-21T07:47:32.207Z,19.66
2018-10-21T07:48:32.161Z,19.5
2018-10-21T07:49:32.092Z,19.37
2018-10-21T07:50:32.356Z,19.28
2018-10-21T07:51:32.194Z,19.25
2018-10-21T07:52:32.111Z,19.29
2018-10-21T07:53:32.231Z,19.38
2018-10-21T07:54:32.167Z,19.42
2018-10-21T07:55:32.515Z,19.47
2018-10-21T07:56:32.082Z,19.54
2018-10-21T07:57:32.334Z,19.59
2018-10-21T07:58:32.128Z,19.62
2018-10-21T07:59:32.352Z,19.66
2018-10-21T08:00:32.417Z,19.69
2018-10-21T08:01:32.221Z,19.72
2018-10-21T08:02:32.237Z,19.76
2018-10-21T08:03:33.009Z,19.77
2018-10-21T08:04:32.219Z,19.79
2018-10-21T08:05:32.151Z,19.81
2018-10-21T08:06:32.262Z,19.83
2018-10-21T08:07:32.253Z,19.84
2018-10-21T08:08:32.377Z,19.86
2018-10-21T08:09:32.196Z,19.86
2018-10-21T08:10:32.357Z,19.87
2018-10-21T08:11:32.215Z,19.88
2018-10-21T08:12:32.004Z,19.87
2018-10-21T08:13:32.106Z,19.88
2018-10-21T08:14:32.054Z,19.91
2018-10-21T08:15:32.423Z,19.92
2018-10-21T08:16:32.126Z,19.93
2018-10-21T08:17:32.130Z,19.93
2018-10-21T08:18:32.328Z,19.92
2018-10-21T08:19:32.113Z,19.93
2018-10-21T08:20:32.260Z,19.93
2018-10-21T08:21:32.304Z,19.94
2018-10-21T08:22:32.079Z,19.93
2018-10-21T08:23:32.072Z,19.93
2018-10-21T08:24:32.122Z,19.93
2018-10-21T08:25:32.132Z,19.94
2018-10-21T08:26:32.331Z,19.95
2018-10-21T08:27:32.018Z,19.95
2018-10-21T08:28:32.099Z,19.96
2018-10-21T08:29:32.291Z,19.98
2018-10-21T08:30:32.173Z,19.99
2018-10-21T08:31:32.261Z,19.99
2018-10-21T08:32:32.715Z,20
2018-10-21T08:33:31.984Z,19.99
2018-10-21T08:34:32.153Z,19.99
2018-10-21T08:35:31.963Z,20
2018-10-21T08:36:32.408Z,20
2018-10-21T08:37:31.995Z,20
2018-10-21T08:38:32.181Z,20
2018-10-21T08:39:32.525Z,20.02
2018-10-21T08:40:32.153Z,20.02
2018-10-21T08:41:32.594Z,20.03
2018-10-21T08:42:32.482Z,20.05
2018-10-21T08:43:32.241Z,20.01
2018-10-21T08:44:32.448Z,20.02
2018-10-21T08:45:32.192Z,20.02
2018-10-21T08:46:32.001Z,20.03
2018-10-21T08:47:32.404Z,20.02
2018-10-21T08:48:32.074Z,20.02
2018-10-21T08:49:32.401Z,20.01
2018-10-21T08:50:32.693Z,20.02
2018-10-21T08:51:32.098Z,20.02
2018-10-21T08:52:32.186Z,20
2018-10-21T08:53:32.249Z,20.01
2018-10-21T08:54:32.119Z,20.01
2018-10-21T08:55:32.150Z,20
2018-10-21T08:56:32.216Z,19.98
2018-10-21T08:57:32.025Z,19.99
2018-10-21T08:58:32.435Z,19.99
2018-10-21T08:59:32.244Z,19.99
2018-10-21T09:00:32.096Z,19.98
2018-10-21T09:01:32.060Z,19.96
2018-10-21T09:02:32.567Z,19.97
2018-10-21T09:03:32.170Z,19.98
2018-10-21T09:04:32.295Z,19.97
2018-10-21T09:05:32.133Z,19.97
2018-10-21T09:06:32.016Z,19.97
2018-10-21T09:07:32.359Z,19.97
2018-10-21T09:08:32.263Z,19.98
2018-10-21T09:09:32.326Z,19.98
2018-10-21T09:10:32.597Z,19.97
2018-10-21T09:11:32.279Z,19.96
2018-10-21T09:12:32.428Z,19.96
2018-10-21T09:13:32.291Z,19.94
2018-10-21T09:14:32.239Z,19.91
2018-10-21T09:15:32.237Z,19.9
2018-10-21T09:16:32.360Z,19.89
2018-10-21T09:17:32.339Z,19.87
2018-10-21T09:18:32.168Z,19.87
2018-10-21T09:19:32.015Z,19.86
2018-10-21T09:20:32.191Z,19.86
2018-10-21T09:21:32.126Z,19.86
2018-10-21T09:22:32.196Z,19.88
2018-10-21T09:23:32.077Z,19.89
2018-10-21T09:24:32.088Z,19.89
2018-10-21T09:25:32.702Z,19.89
2018-10-21T09:26:32.077Z,19.91
2018-10-21T09:27:32.152Z,19.89
2018-10-21T09:28:32.031Z,19.88
2018-10-21T09:29:32.216Z,19.87
2018-10-21T09:30:32.085Z,19.89
2018-10-21T09:31:32.193Z,19.89
2018-10-21T09:32:32.303Z,19.87
2018-10-21T09:33:32.183Z,19.86
2018-10-21T09:34:32.470Z,19.87
2018-10-21T09:35:32.032Z,19.87
2018-10-21T09:36:32.167Z,19.89
2018-10-21T09:37:32.112Z,19.91
2018-10-21T09:38:32.689Z,19.9
2018-10-21T09:39:32.138Z,19.91
2018-10-21T09:40:32.230Z,19.93
2018-10-21T09:41:32.200Z,19.95
2018-10-21T09:42:32.019Z,19.94
2018-10-21T09:43:32.309Z,19.94
2018-10-21T09:44:32.203Z,19.95
2018-10-21T09:45:32.381Z,19.94
2018-10-21T09:46:32.355Z,19.96
2018-10-21T09:47:32.247Z,19.96
2018-10-21T09:48:32.286Z,19.96
2018-10-21T09:49:32.545Z,19.95
2018-10-21T09:50:32.205Z,19.95
2018-10-21T09:51:32.291Z,19.96
2018-10-21T09:52:32.113Z,19.98
2018-10-21T09:53:32.173Z,19.97
2018-10-21T09:54:32.404Z,19.98
2018-10-21T09:55:32.057Z,19.97
2018-10-21T09:56:32.151Z,19.98
2018-10-21T09:57:32.415Z,19.99
2018-10-21T09:58:32.165Z,19.98
2018-10-21T09:59:32.163Z,19.99
2018-10-21T10:00:32.003Z,19.99
2018-10-21T10:01:32.461Z,20.01
2018-10-21T10:02:32.356Z,20.01
2018-10-21T10:03:32.132Z,20.02
2018-10-21T10:04:32.052Z,20.02
2018-10-21T10:05:32.122Z,20.02
2018-10-21T10:06:32.195Z,20.03
2018-10-21T10:07:32.047Z,20.03
2018-10-21T10:08:32.204Z,20.03
2018-10-21T10:09:32.040Z,20.03
2018-10-21T10:10:32.187Z,20.06
2018-10-21T10:11:32.202Z,20.05
2018-10-21T10:12:32.137Z,20.03
2018-10-21T10:13:32.120Z,20.02
2018-10-21T10:14:32.049Z,20.02
2018-10-21T10:15:32.407Z,20.05
2018-10-21T10:16:32.348Z,20.05
2018-10-21T10:17:32.495Z,19.99
2018-10-21T10:18:32.265Z,20
2018-10-21T10:20:02.176Z,20.21
2018-10-21T10:21:02.219Z,20.21
2018-10-21T10:22:02.111Z,20.25
2018-10-21T10:23:02.321Z,20.29
2018-10-21T10:24:02.590Z,20.31
2018-10-21T10:25:01.992Z,20.33
2018-10-21T10:26:01.980Z,20.34
2018-10-21T10:27:01.974Z,20.36
2018-10-21T10:28:02.428Z,20.39
2018-10-21T10:29:02.150Z,20.41
2018-10-21T10:30:03.427Z,20.43
2018-10-21T10:31:23.949Z,20.45
2018-10-21T10:32:24.085Z,20.47
2018-10-21T10:33:24.261Z,20.5
2018-10-21T10:34:24.168Z,20.51
2018-10-21T10:35:24.076Z,20.52
2018-10-21T10:36:24.120Z,20.53
2018-10-21T10:37:24.223Z,20.55
2018-10-21T10:38:24.060Z,20.56
2018-10-21T10:39:24.027Z,20.57
2018-10-21T10:40:23.998Z,20.58
2018-10-21T10:41:24.445Z,20.58
2018-10-21T10:42:24.327Z,20.59
2018-10-21T10:43:43.624Z,20.61
2018-10-21T10:44:43.835Z,20.64
2018-10-21T10:45:43.651Z,20.67
2018-10-21T10:47:13.615Z,20.68
2018-10-21T10:48:13.435Z,20.71
2018-10-21T10:49:13.474Z,20.71
2018-10-21T10:50:13.768Z,20.72
2018-10-21T10:52:06.936Z,20.73
2018-10-21T10:53:37.691Z,20.77
2018-10-21T10:58:26.320Z,20.82
2018-10-21T10:59:09.628Z,20.84
2018-10-21T11:00:09.925Z,20.87
2018-10-21T11:01:15.165Z,20.88
2018-10-21T11:02:15.203Z,20.9
2018-10-21T11:03:15.245Z,20.93
2018-10-21T11:04:15.092Z,20.84
2018-10-21T11:05:15.104Z,20.85
2018-10-21T11:06:15.416Z,20.87
2018-10-21T11:07:15.400Z,20.88
2018-10-21T11:08:15.355Z,20.85
2018-10-21T11:09:15.714Z,20.87
2018-10-21T11:10:15.581Z,20.85
2018-10-21T11:11:15.320Z,20.83
2018-10-21T11:12:15.122Z,20.84
2018-10-21T11:13:15.513Z,20.85
2018-10-21T11:14:15.323Z,20.83
2018-10-21T11:15:15.359Z,20.84
2018-10-21T11:16:15.459Z,20.84
2018-10-21T11:17:15.246Z,20.82
2018-10-21T11:18:15.075Z,20.86
2018-10-21T11:19:15.156Z,20.85
2018-10-21T11:21:31.004Z,20.87
2018-10-21T11:22:30.705Z,20.89
2018-10-21T11:24:00.288Z,20.91
2018-10-21T11:25:00.328Z,20.89
2018-10-21T11:26:00.515Z,20.91
2018-10-21T11:27:00.527Z,20.92
2018-10-21T11:27:44.835Z,20.92
2018-10-21T11:28:28.993Z,21.02
2018-10-21T11:29:28.698Z,20.98
2018-10-21T11:30:28.807Z,20.98
2018-10-21T11:31:28.931Z,20.99
2018-10-21T11:32:28.899Z,21.01
2018-10-21T11:33:28.957Z,21
2018-10-21T11:34:28.791Z,20.88
2018-10-21T11:35:28.741Z,20.92
2018-10-21T11:36:29.025Z,20.91
2018-10-21T11:37:29.096Z,20.93
2018-10-21T11:38:29.200Z,20.92
2018-10-21T11:39:28.992Z,20.93
2018-10-21T11:40:28.835Z,20.92
2018-10-21T11:41:28.876Z,20.9
2018-10-21T11:42:29.143Z,20.89
2018-10-21T11:43:29.002Z,20.89
2018-10-21T11:44:28.952Z,20.86
2018-10-21T11:45:28.871Z,20.88
2018-10-21T11:46:28.979Z,20.87
2018-10-21T11:47:29.372Z,20.85
2018-10-21T11:48:29.004Z,20.85
2018-10-21T11:49:29.007Z,20.83
2018-10-21T11:50:28.866Z,20.8
2018-10-21T11:51:28.795Z,20.82
2018-10-21T11:52:29.044Z,20.82
2018-10-21T11:53:29.252Z,20.79
2018-10-21T11:54:29.347Z,20.79
2018-10-21T11:55:28.902Z,20.78
2018-10-21T11:56:29.194Z,20.77
2018-10-21T11:57:28.944Z,20.77
2018-10-21T11:58:29.400Z,20.74
2018-10-21T11:59:28.772Z,20.74
2018-10-21T12:00:28.894Z,20.74
2018-10-21T12:01:28.967Z,20.75
2018-10-21T12:02:28.878Z,20.72
2018-10-21T12:03:29.280Z,20.73
2018-10-21T12:04:29.102Z,20.71
2018-10-21T12:05:29.187Z,20.7
2018-10-21T12:06:29.869Z,20.7
2018-10-21T12:07:28.825Z,20.72
2018-10-21T12:08:28.923Z,20.7
2018-10-21T12:09:29.088Z,20.69
2018-10-21T12:10:29.388Z,20.69
2018-10-21T12:11:29.150Z,20.68
2018-10-21T12:12:29.002Z,20.67
2018-10-21T12:13:29.008Z,20.68
2018-10-21T12:14:28.849Z,20.66
2018-10-21T12:15:28.972Z,20.68
2018-10-21T12:16:29.193Z,20.66
2018-10-21T12:17:28.921Z,20.65
2018-10-21T12:18:29.026Z,20.63
2018-10-21T12:19:28.960Z,20.65
2018-10-21T12:20:29.202Z,20.63
2018-10-21T12:21:29.245Z,20.65
2018-10-21T12:22:28.776Z,20.64
2018-10-21T12:23:28.902Z,20.63
2018-10-21T12:24:29.505Z,20.64
2018-10-21T12:25:28.980Z,20.63
2018-10-21T12:26:29.109Z,20.62
2018-10-21T12:27:28.850Z,20.61
2018-10-21T12:28:28.979Z,20.63
2018-10-21T12:29:28.997Z,20.6
2018-10-21T12:30:28.861Z,20.62
2018-10-21T12:31:29.190Z,20.61
2018-10-21T12:32:29.417Z,20.59
2018-10-21T12:33:28.860Z,20.6
2018-10-21T12:34:29.058Z,20.58
2018-10-21T12:35:29.073Z,20.64
2018-10-21T12:36:28.972Z,20.63
2018-10-21T12:37:28.877Z,20.68
2018-10-21T12:38:29.023Z,20.69
2018-10-21T12:39:28.927Z,20.71
2018-10-21T12:40:29.266Z,20.73
2018-10-21T12:41:29.030Z,20.72
2018-10-21T12:42:28.863Z,20.69
2018-10-21T12:43:28.922Z,20.66
2018-10-21T12:44:28.989Z,20.68
2018-10-21T12:45:28.941Z,20.71
2018-10-21T12:46:29.151Z,20.68
2018-10-21T12:47:29.054Z,20.68
2018-10-21T12:48:29.212Z,20.68
2018-10-21T12:49:28.908Z,20.67
2018-10-21T12:50:29.010Z,20.67
2018-10-21T12:51:28.928Z,20.65
2018-10-21T12:52:29.215Z,20.67
2018-10-21T12:53:29.010Z,20.65
2018-10-21T12:54:28.938Z,20.64
2018-10-21T12:55:29.337Z,20.65
2018-10-21T12:56:29.158Z,20.64
2018-10-21T12:57:28.922Z,20.65
2018-10-21T12:58:28.864Z,20.65
2018-10-21T12:59:28.968Z,20.63
2018-10-21T13:00:29.050Z,20.63
2018-10-21T13:01:28.845Z,20.63
2018-10-21T13:02:28.851Z,20.62
2018-10-21T13:03:29.023Z,20.62
2018-10-21T13:04:28.894Z,20.63